Time;durP1;ratioP1;P1;durP2;ratioP2;P2;SDS_P1;SDS_P2;PMS_P1;PMS_P2;Temp;Humidity;BMP_temperature;BMP_pressure;BME280_temperature;BME280_humidity;BME280_pressure;Samples;Min_cycle;Max_cycle;Signal;HPM_P1;HPM_P2
2022/03/24 00:01:37;;;;;;;34.93;25.20;;;7.70;58.70;;;;;;5059291;28;20456;-44
2022/03/24 00:04:03;;;;;;;34.87;24.97;;;7.90;59.00;;;;;;5076782;28;20457;-44
2022/03/24 00:06:30;;;;;;;34.00;24.47;;;7.90;59.10;;;;;;5077389;28;20445;-44
2022/03/24 00:08:57;;;;;;;33.27;25.13;;;7.90;59.20;;;;;;5076668;28;20530;-43
2022/03/24 00:11:25;;;;;;;42.13;25.53;;;7.90;59.20;;;;;;5078985;28;20933;-43
2022/03/24 00:13:52;;;;;;;40.10;25.67;;;7.80;59.50;;;;;;5077972;28;20455;-43
2022/03/24 00:16:19;;;;;;;38.87;26.10;;;7.80;59.50;;;;;;5079160;28;20446;-45
2022/03/24 00:18:46;;;;;;;38.90;24.40;;;7.80;59.80;;;;;;5076613;28;20928;-43
2022/03/24 00:21:13;;;;;;;39.30;25.63;;;7.80;59.70;;;;;;5077002;28;20435;-44
2022/03/24 00:23:40;;;;;;;35.37;25.37;;;7.70;59.70;;;;;;5077088;28;20485;-44
2022/03/24 00:26:07;;;;;;;36.90;25.03;;;7.70;59.90;;;;;;5077085;28;20489;-43
2022/03/24 00:28:35;;;;;;;35.40;24.07;;;7.70;59.90;;;;;;5076523;28;20944;-44
2022/03/24 00:31:02;;;;;;;32.97;25.40;;;7.60;59.90;;;;;;5058994;28;20456;-44
2022/03/24 00:33:29;;;;;;;38.73;26.20;;;7.60;60.00;;;;;;5059196;28;20467;-45
2022/03/24 00:35:56;;;;;;;35.60;24.10;;;7.60;60.40;;;;;;5076356;28;20908;-44
2022/03/24 00:38:23;;;;;;;38.90;24.77;;;7.60;60.50;;;;;;5075486;28;20949;-45
2022/03/24 00:40:51;;;;;;;42.00;27.93;;;7.50;60.30;;;;;;5075295;28;20428;-44
2022/03/24 00:43:18;;;;;;;37.17;26.23;;;7.50;60.50;;;;;;5075868;28;20519;-44
2022/03/24 00:45:46;;;;;;;37.97;24.30;;;7.50;60.30;;;;;;5075896;28;20483;-43
2022/03/24 00:48:13;;;;;;;38.93;25.70;;;7.50;60.60;;;;;;5075998;28;20520;-44
2022/03/24 00:50:39;;;;;;;40.70;26.97;;;7.50;60.90;;;;;;5057731;28;20443;-44
2022/03/24 00:53:06;;;;;;;35.13;24.63;;;7.40;60.90;;;;;;5075845;28;20460;-44
2022/03/24 00:55:34;;;;;;;37.77;24.93;;;7.40;61.50;;;;;;5075384;28;20890;-44
2022/03/24 00:58:01;;;;;;;33.57;24.60;;;7.40;61.50;;;;;;5075489;28;20538;-44
2022/03/24 01:00:28;;;;;;;38.73;25.43;;;7.20;61.60;;;;;;5073326;28;20465;-44
2022/03/24 01:02:57;;;;;;;43.83;27.07;;;7.30;61.80;;;;;;5074921;28;20506;-44
2022/03/24 01:05:27;;;;;;;40.03;25.90;;;7.20;61.60;;;;;;5076661;28;20455;-45
2022/03/24 01:07:54;;;;;;;39.00;25.37;;;7.20;61.50;;;;;;5074931;28;21018;-45
2022/03/24 01:10:22;;;;;;;43.30;27.37;;;7.20;61.80;;;;;;5074820;28;20432;-45
2022/03/24 01:12:49;;;;;;;39.73;25.87;;;7.20;62.10;;;;;;5075074;28;20813;-45
2022/03/24 01:15:18;;;;;;;41.37;25.23;;;7.10;62.10;;;;;;5074745;28;20434;-45
2022/03/24 01:17:45;;;;;;;45.37;27.57;;;7.00;62.40;;;;;;5075005;28;20525;-45
2022/03/24 01:20:13;;;;;;;36.07;24.60;;;7.00;62.20;;;;;;5074404;28;20434;-45
2022/03/24 01:22:40;;;;;;;36.93;27.27;;;7.00;62.50;;;;;;5074850;28;20481;-46
2022/03/24 01:25:08;;;;;;;36.47;24.93;;;7.00;62.90;;;;;;5074588;28;20514;-45
2022/03/24 01:27:37;;;;;;;35.20;25.00;;;6.90;62.70;;;;;;5056860;28;20453;-45
2022/03/24 01:30:04;;;;;;;39.70;26.87;;;6.90;62.60;;;;;;5074050;28;20444;-44
2022/03/24 01:32:31;;;;;;;34.67;24.47;;;6.90;62.70;;;;;;5074173;28;20455;-45
2022/03/24 01:34:58;;;;;;;38.20;23.93;;;6.90;62.90;;;;;;5074669;28;20421;-45
2022/03/24 01:37:26;;;;;;;42.93;26.70;;;6.90;63.00;;;;;;5055968;28;20447;-44
2022/03/24 01:39:53;;;;;;;37.47;24.80;;;6.90;63.20;;;;;;5055650;28;20433;-45
2022/03/24 01:42:21;;;;;;;37.73;24.10;;;6.80;63.10;;;;;;5073684;28;20886;-45
2022/03/24 01:44:48;;;;;;;37.77;26.40;;;6.80;63.40;;;;;;5073979;28;20431;-44
2022/03/24 01:47:16;;;;;;;38.63;25.73;;;6.50;63.40;;;;;;5074183;28;20442;-44
2022/03/24 01:49:47;;;;;;;40.53;26.60;;;6.70;63.60;;;;;;5055377;28;20474;-45
2022/03/24 01:52:19;;;;;;;35.90;24.60;;;6.70;63.70;;;;;;5055557;28;20861;-44
2022/03/24 01:54:49;;;;;;;39.90;24.73;;;6.70;63.90;;;;;;5073997;28;20408;-43
2022/03/24 01:57:17;;;;;;;35.40;25.00;;;6.60;64.00;;;;;;5073950;28;20434;-45
2022/03/24 01:59:45;;;;;;;47.27;26.77;;;6.60;64.10;;;;;;5055579;28;20442;-45
2022/03/24 02:02:14;;;;;;;42.97;27.00;;;6.60;64.40;;;;;;5055511;28;20836;-44
2022/03/24 02:04:43;;;;;;;38.17;25.67;;;6.60;64.60;;;;;;5056218;28;20464;-43
2022/03/24 02:07:11;;;;;;;38.63;24.90;;;6.50;64.50;;;;;;5055767;28;20470;-45
2022/03/24 02:09:39;;;;;;;43.47;26.17;;;6.50;64.70;;;;;;5055459;28;20454;-44
2022/03/24 02:12:09;;;;;;;37.80;26.30;;;6.50;64.90;;;;;;5055625;28;20469;-45
2022/03/24 02:14:38;;;;;;;43.93;26.47;;;6.40;65.00;;;;;;5055541;28;20450;-45
2022/03/24 02:17:05;;;;;;;37.27;25.30;;;6.40;65.00;;;;;;5055798;28;20785;-43
2022/03/24 02:19:34;;;;;;;39.80;24.20;;;6.40;65.30;;;;;;5055390;28;20556;-45
2022/03/24 02:22:10;;;;;;;35.30;25.93;;;6.30;65.80;;;;;;5055452;28;20452;-44
2022/03/24 02:24:37;;;;;;;35.90;23.80;;;6.30;66.70;;;;;;5073309;28;20951;-43
2022/03/24 02:27:04;;;;;;;38.20;23.48;;;6.30;66.30;;;;;;5073243;28;20647;-44
2022/03/24 02:29:31;;;;;;;35.00;23.37;;;6.20;66.40;;;;;;5073080;28;20202;-43
2022/03/24 02:31:57;;;;;;;39.53;25.97;;;6.20;66.30;;;;;;5073683;28;20636;-44
2022/03/24 02:34:47;;;;;;;41.80;23.95;;;6.20;66.80;;;;;;5073683;28;20739;-44
2022/03/24 02:37:17;;;;;;;40.03;25.27;;;6.20;66.60;;;;;;5073092;28;20200;-44
2022/03/24 02:39:46;;;;;;;41.25;26.40;;;6.20;66.90;;;;;;5072264;28;20856;-45
2022/03/24 02:42:15;;;;;;;33.88;23.35;;;6.10;67.10;;;;;;5072531;28;20216;-44
2022/03/24 02:44:43;;;;;;;37.60;27.15;;;5.90;66.70;;;;;;5072528;28;20224;-44
2022/03/24 02:47:10;;;;;;;37.77;25.77;;;6.00;67.10;;;;;;5073378;28;20192;-44
2022/03/24 02:49:38;;;;;;;36.07;25.10;;;6.00;67.30;;;;;;5072615;28;20931;-43
2022/03/24 02:52:06;;;;;;;36.93;23.83;;;6.00;67.50;;;;;;5072573;28;20456;-44
2022/03/24 02:54:34;;;;;;;34.35;24.63;;;6.00;68.00;;;;;;5072767;28;20437;-45
2022/03/24 02:57:01;;;;;;;33.88;23.88;;;5.90;68.10;;;;;;5073730;28;20249;-45
2022/03/24 02:59:28;;;;;;;34.95;25.27;;;5.90;68.10;;;;;;5074117;28;20208;-44
2022/03/24 03:01:56;;;;;;;37.40;27.13;;;5.90;68.20;;;;;;5074689;28;20560;-45
2022/03/24 03:04:23;;;;;;;42.77;27.17;;;5.80;68.60;;;;;;5072939;28;20227;-45
2022/03/24 03:06:50;;;;;;;40.42;26.05;;;5.80;69.40;;;;;;5072943;28;20437;-45
2022/03/24 03:09:18;;;;;;;40.20;26.50;;;5.70;69.50;;;;;;5073101;28;20199;-44
2022/03/24 03:11:47;;;;;;;38.85;26.77;;;5.70;69.60;;;;;;5073467;28;20200;-44
2022/03/24 03:14:15;;;;;;;39.20;25.77;;;5.70;69.80;;;;;;5072795;28;20198;-44
2022/03/24 03:16:44;;;;;;;41.22;28.70;;;5.60;69.80;;;;;;5073340;28;20210;-45
2022/03/24 03:19:11;;;;;;;39.58;25.92;;;5.60;70.40;;;;;;5073180;28;20191;-44
2022/03/24 03:21:39;;;;;;;45.15;28.23;;;5.50;70.80;;;;;;5074457;28;20191;-44
2022/03/24 03:24:08;;;;;;;40.00;28.33;;;5.50;71.00;;;;;;5074665;28;20233;-44
2022/03/24 03:26:34;;;;;;;37.05;26.67;;;5.50;71.60;;;;;;5073898;28;20203;-44
2022/03/24 03:29:03;;;;;;;41.80;29.60;;;5.40;71.80;;;;;;5072103;28;20203;-45
2022/03/24 03:31:30;;;;;;;42.47;27.98;;;5.40;72.10;;;;;;5072407;28;20207;-43
2022/03/24 03:33:58;;;;;;;45.78;30.08;;;5.30;72.20;;;;;;5072140;28;20216;-44
2022/03/24 03:36:26;;;;;;;46.53;28.67;;;5.30;72.90;;;;;;5072258;28;20205;-44
2022/03/24 03:38:52;;;;;;;40.72;27.77;;;5.20;72.80;;;;;;5073465;28;20612;-45
2022/03/24 03:41:22;;;;;;;40.97;27.08;;;5.10;73.20;;;;;;5072184;28;20195;-44
2022/03/24 03:43:48;;;;;;;41.00;27.80;;;5.00;73.40;;;;;;5073063;28;20229;-44
2022/03/24 03:46:17;;;;;;;41.17;29.60;;;5.20;74.20;;;;;;5074938;28;20199;-44
2022/03/24 03:48:44;;;;;;;41.13;28.27;;;5.10;74.80;;;;;;5073646;28;20196;-43
2022/03/24 03:51:10;;;;;;;43.25;29.80;;;5.00;75.60;;;;;;5074754;28;20188;-43
2022/03/24 03:53:38;;;;;;;45.88;29.10;;;5.00;76.20;;;;;;5073418;28;20222;-43
2022/03/24 03:56:06;;;;;;;41.60;30.42;;;4.90;76.00;;;;;;5072047;28;20574;-44
2022/03/24 03:58:34;;;;;;;43.53;29.13;;;4.90;76.20;;;;;;5071805;28;20252;-43
2022/03/24 04:01:01;;;;;;;48.50;31.35;;;4.90;76.80;;;;;;5072127;28;20210;-44
2022/03/24 04:03:31;;;;;;;44.92;30.05;;;4.80;77.40;;;;;;5071650;28;20222;-44
2022/03/24 04:05:59;;;;;;;48.28;29.77;;;4.80;77.20;;;;;;5072106;28;20202;-44
2022/03/24 04:08:27;;;;;;;43.92;29.55;;;4.80;77.40;;;;;;5071341;28;20286;-44
2022/03/24 04:10:55;;;;;;;36.63;27.45;;;4.70;78.00;;;;;;5071820;28;20274;-44
2022/03/24 04:13:22;;;;;;;43.33;28.85;;;4.70;78.10;;;;;;5072061;28;20703;-44
2022/03/24 04:15:50;;;;;;;44.08;30.17;;;4.70;78.40;;;;;;5072436;28;20195;-42
2022/03/24 04:18:17;;;;;;;49.78;31.00;;;4.70;78.70;;;;;;5074757;28;20203;-45
2022/03/24 04:20:45;;;;;;;46.53;29.23;;;4.60;78.80;;;;;;5073990;28;20192;-44
2022/03/24 04:23:12;;;;;;;44.65;31.42;;;4.60;79.10;;;;;;5073256;28;20239;-43
2022/03/24 04:25:39;;;;;;;45.88;31.92;;;4.60;80.00;;;;;;5075894;28;20206;-45
2022/03/24 04:28:07;;;;;;;49.28;30.58;;;4.60;80.20;;;;;;5077316;28;20561;-44
2022/03/24 04:30:34;;;;;;;50.10;31.63;;;4.50;80.50;;;;;;5076398;28;20221;-44
2022/03/24 04:33:01;;;;;;;49.65;31.42;;;4.50;80.70;;;;;;5076060;28;20707;-44
2022/03/24 04:35:28;;;;;;;49.58;32.65;;;4.50;81.00;;;;;;5059705;28;20195;-44
2022/03/24 04:37:56;;;;;;;48.03;31.55;;;4.40;81.20;;;;;;5076003;28;20195;-45
2022/03/24 04:40:23;;;;;;;48.03;32.22;;;4.40;81.40;;;;;;5075563;28;20195;-44
2022/03/24 04:42:51;;;;;;;50.08;34.30;;;4.40;81.60;;;;;;5075234;28;20567;-44
2022/03/24 04:45:18;;;;;;;60.03;33.58;;;4.40;81.90;;;;;;5075229;28;20269;-45
2022/03/24 04:47:45;;;;;;;51.95;31.95;;;4.40;81.90;;;;;;5075459;28;20210;-45
2022/03/24 04:50:13;;;;;;;48.13;30.98;;;4.40;82.30;;;;;;5074751;28;20199;-44
2022/03/24 04:52:40;;;;;;;53.00;33.33;;;4.40;83.20;;;;;;5074867;28;20227;-45
2022/03/24 04:55:09;;;;;;;52.92;33.58;;;4.30;83.40;;;;;;5075109;28;20195;-44
2022/03/24 04:57:36;;;;;;;45.10;31.90;;;4.30;83.60;;;;;;5075222;28;20235;-45
2022/03/24 05:00:05;;;;;;;53.17;33.55;;;4.30;83.80;;;;;;5074723;28;20203;-43
2022/03/24 05:02:32;;;;;;;50.72;33.28;;;4.30;84.30;;;;;;5075255;28;20222;-44
2022/03/24 05:04:58;;;;;;;48.60;33.70;;;4.30;84.40;;;;;;5075045;28;20219;-44
2022/03/24 05:07:26;;;;;;;57.30;33.67;;;4.30;84.60;;;;;;5075263;28;20214;-44
2022/03/24 05:09:53;;;;;;;55.53;36.42;;;4.30;84.70;;;;;;5077294;28;20713;-45
2022/03/24 05:12:21;;;;;;;49.53;34.05;;;4.30;84.70;;;;;;5079980;28;20227;-45
2022/03/24 05:14:48;;;;;;;52.33;35.80;;;4.30;85.10;;;;;;5076148;28;20187;-45
2022/03/24 05:17:15;;;;;;;52.83;35.80;;;4.30;85.20;;;;;;5075909;28;20213;-46
2022/03/24 05:19:44;;;;;;;57.75;36.70;;;4.30;85.40;;;;;;5075364;28;20503;-45
2022/03/24 05:22:10;;;;;;;58.20;35.25;;;4.30;85.70;;;;;;5075168;28;20217;-45
2022/03/24 05:24:38;;;;;;;57.25;36.40;;;4.10;85.90;;;;;;5074733;28;20217;-45
2022/03/24 05:27:05;;;;;;;56.65;35.35;;;4.10;86.00;;;;;;5074550;28;20282;-45
2022/03/24 05:29:34;;;;;;;53.15;34.78;;;4.30;86.50;;;;;;5073912;28;20245;-46
2022/03/24 05:32:00;;;;;;;48.92;34.17;;;4.30;86.70;;;;;;5074274;28;20199;-45
2022/03/24 05:34:27;;;;;;;56.80;35.72;;;4.30;87.40;;;;;;5074159;28;20187;-45
2022/03/24 05:36:55;;;;;;;61.55;38.30;;;4.30;87.70;;;;;;5072988;28;20211;-45
2022/03/24 05:39:21;;;;;;;58.67;37.15;;;4.40;88.20;;;;;;5073943;28;20664;-44
2022/03/24 05:41:48;;;;;;;58.40;38.40;;;4.40;88.60;;;;;;5073988;28;20191;-46
2022/03/24 05:44:14;;;;;;;61.88;39.53;;;4.30;88.90;;;;;;5057016;28;20223;-45
2022/03/24 05:46:44;;;;;;;59.50;39.65;;;4.20;90.00;;;;;;5074277;28;20196;-45
2022/03/24 05:49:14;;;;;;;56.60;36.10;;;4.40;89.80;;;;;;5073453;28;20630;-46
2022/03/24 05:51:52;;;;;;;61.60;37.90;;;4.40;90.00;;;;;;5074048;28;20605;-45
2022/03/24 05:54:19;;;;;;;63.75;38.05;;;4.40;90.10;;;;;;5073634;28;20231;-45
2022/03/24 05:56:46;;;;;;;54.45;37.90;;;4.40;90.30;;;;;;5073798;28;20210;-45
2022/03/24 05:59:13;;;;;;;58.20;39.63;;;4.50;90.60;;;;;;5073218;28;20203;-45
2022/03/24 06:01:43;;;;;;;66.00;42.78;;;4.60;90.40;;;;;;5073962;28;20611;-44
2022/03/24 06:04:13;;;;;;;64.25;40.53;;;4.70;90.60;;;;;;5073717;28;20229;-44
2022/03/24 06:06:40;;;;;;;62.92;40.42;;;4.70;90.60;;;;;;5073562;28;20290;-45
2022/03/24 06:09:07;;;;;;;64.53;39.38;;;4.90;90.60;;;;;;5073019;28;20195;-44
2022/03/24 06:11:35;;;;;;;74.38;40.88;;;4.90;90.30;;;;;;5073283;28;20218;-45
2022/03/24 06:14:02;;;;;;;61.78;38.10;;;5.00;90.30;;;;;;5072928;28;20227;-45
2022/03/24 06:16:29;;;;;;;65.45;40.15;;;5.10;90.20;;;;;;5073099;28;20210;-45
2022/03/24 06:18:57;;;;;;;67.38;39.92;;;5.20;90.10;;;;;;5054796;28;20238;-45
2022/03/24 06:21:24;;;;;;;65.03;40.97;;;5.30;90.00;;;;;;5073298;28;20717;-45
2022/03/24 06:23:50;;;;;;;74.30;41.88;;;5.40;90.00;;;;;;5073194;28;20331;-45
2022/03/24 06:26:19;;;;;;;99.75;51.17;;;5.50;89.90;;;;;;5072771;28;20195;-45
2022/03/24 06:28:45;;;;;;;65.75;40.53;;;5.60;90.00;;;;;;5072746;28;20270;-45
2022/03/24 06:31:12;;;;;;;57.83;38.42;;;5.70;89.90;;;;;;5072770;28;20195;-45
2022/03/24 06:33:39;;;;;;;69.07;41.75;;;5.70;89.50;;;;;;5072826;28;20245;-45
2022/03/24 06:36:08;;;;;;;61.15;41.42;;;5.70;89.30;;;;;;5072643;28;20345;-46
2022/03/24 06:38:35;;;;;;;69.80;37.83;;;5.80;89.00;;;;;;5072525;28;20291;-45
2022/03/24 06:41:02;;;;;;;61.58;40.40;;;5.80;89.00;;;;;;5072469;28;20490;-47
2022/03/24 06:43:28;;;;;;;60.97;36.20;;;5.90;88.80;;;;;;5072085;28;20219;-46
2022/03/24 06:45:55;;;;;;;59.00;38.28;;;5.90;89.70;;;;;;5072603;28;20223;-47
2022/03/24 06:48:22;;;;;;;60.58;39.45;;;5.90;88.80;;;;;;5072396;28;20203;-45
2022/03/24 06:50:49;;;;;;;54.75;37.58;;;5.90;89.40;;;;;;5072471;28;20200;-45
2022/03/24 06:53:17;;;;;;;57.25;38.10;;;6.00;88.50;;;;;;5071950;28;20355;-45
2022/03/24 06:55:44;;;;;;;57.63;37.50;;;6.10;88.60;;;;;;5072767;28;20301;-46
2022/03/24 06:58:11;;;;;;;59.50;40.35;;;6.10;88.30;;;;;;5072348;28;20687;-47
2022/03/24 07:00:39;;;;;;;59.92;42.28;;;6.20;88.00;;;;;;5071469;28;20418;-48
2022/03/24 07:03:06;;;;;;;62.50;39.50;;;6.40;88.20;;;;;;5072737;28;20220;-45
2022/03/24 07:05:33;;;;;;;64.60;40.27;;;6.30;87.90;;;;;;5072519;28;20958;-45
2022/03/24 07:07:59;;;;;;;56.87;38.07;;;6.50;87.80;;;;;;5071952;28;20408;-46
2022/03/24 07:10:27;;;;;;;60.83;38.47;;;6.60;87.70;;;;;;5071971;28;20438;-45
2022/03/24 07:12:54;;;;;;;54.37;37.40;;;6.40;87.30;;;;;;5072004;28;20231;-46
2022/03/24 07:15:22;;;;;;;57.93;38.27;;;6.70;87.40;;;;;;5072313;28;20449;-46
2022/03/24 07:17:49;;;;;;;51.50;38.47;;;6.70;87.10;;;;;;5072102;28;20434;-46
2022/03/24 07:20:16;;;;;;;60.43;39.43;;;6.80;87.00;;;;;;5071676;28;20416;-46
2022/03/24 07:22:42;;;;;;;56.27;36.60;;;6.90;86.80;;;;;;5072067;28;20508;-46
2022/03/24 07:25:10;;;;;;;55.40;38.80;;;6.90;86.60;;;;;;5071892;28;20483;-46
2022/03/24 07:27:38;;;;;;;64.00;36.90;;;7.00;86.50;;;;;;5072952;28;20431;-46
2022/03/24 07:30:06;;;;;;;50.67;35.63;;;7.00;86.40;;;;;;5072118;28;20466;-45
2022/03/24 07:32:34;;;;;;;62.40;39.37;;;7.00;87.00;;;;;;5072030;28;20447;-47
2022/03/24 07:35:00;;;;;;;51.20;38.03;;;7.00;86.10;;;;;;5071864;28;20434;-46
2022/03/24 07:37:28;;;;;;;51.03;37.43;;;6.90;85.90;;;;;;5072293;28;20405;-46
2022/03/24 07:39:55;;;;;;;58.50;36.87;;;7.10;86.00;;;;;;5072125;28;20422;-45
2022/03/24 07:42:22;;;;;;;49.33;37.07;;;7.10;85.90;;;;;;5071522;28;20534;-45
2022/03/24 07:44:50;;;;;;;55.10;36.73;;;7.20;85.90;;;;;;5071690;28;20482;-47
2022/03/24 07:47:16;;;;;;;57.73;38.97;;;7.20;85.70;;;;;;5072065;28;20409;-44
2022/03/24 07:49:43;;;;;;;56.27;38.27;;;7.20;85.70;;;;;;5071841;28;20442;-46
2022/03/24 07:52:12;;;;;;;53.60;34.93;;;7.30;85.90;;;;;;5071828;28;20797;-46
2022/03/24 07:54:57;;;;;;;50.10;36.40;;;7.40;85.70;;;;;;5072250;28;20442;-45
2022/03/24 07:57:24;;;;;;;53.57;37.37;;;7.40;85.70;;;;;;5072429;28;20435;-46
2022/03/24 07:59:52;;;;;;;60.43;37.47;;;7.40;85.50;;;;;;5072990;28;20441;-46
2022/03/24 08:02:19;;;;;;;54.57;35.70;;;7.50;85.50;;;;;;5076453;28;20897;-45
2022/03/24 08:04:46;;;;;;;50.30;36.37;;;7.30;85.20;;;;;;5075888;28;20444;-46
2022/03/24 08:07:12;;;;;;;58.10;37.80;;;7.60;85.30;;;;;;5075286;28;20427;-45
2022/03/24 08:09:39;;;;;;;52.80;38.13;;;7.60;85.10;;;;;;5075855;28;20435;-46
2022/03/24 08:12:06;;;;;;;51.47;34.87;;;7.70;85.00;;;;;;5075186;28;20460;-45
2022/03/24 08:14:33;;;;;;;57.60;37.40;;;7.80;84.90;;;;;;5075741;28;20422;-45
2022/03/24 08:17:01;;;;;;;55.63;38.10;;;7.80;84.50;;;;;;5075484;28;20436;-45
2022/03/24 08:19:28;;;;;;;48.53;35.47;;;7.90;84.50;;;;;;5074780;28;20801;-45
2022/03/24 08:21:54;;;;;;;51.20;36.17;;;7.90;84.30;;;;;;5075575;28;20451;-45
2022/03/24 08:24:21;;;;;;;51.77;34.40;;;8.00;84.20;;;;;;5075516;28;20533;-45
2022/03/24 08:26:48;;;;;;;55.47;36.53;;;8.00;84.10;;;;;;5074794;28;20511;-45
2022/03/24 08:29:14;;;;;;;53.50;37.50;;;8.10;84.20;;;;;;5074928;28;20449;-45
2022/03/24 08:31:41;;;;;;;52.00;36.10;;;8.10;83.90;;;;;;5074724;28;21028;-46
2022/03/24 08:34:09;;;;;;;58.50;39.03;;;8.20;84.00;;;;;;5075071;28;20417;-46
2022/03/24 08:36:35;;;;;;;51.77;35.67;;;8.20;83.80;;;;;;5075146;28;20459;-45
2022/03/24 08:39:02;;;;;;;53.73;35.90;;;8.30;83.60;;;;;;5075103;28;20428;-45
2022/03/24 08:41:29;;;;;;;48.00;33.67;;;8.40;83.40;;;;;;5075122;28;20438;-45
2022/03/24 08:43:55;;;;;;;51.20;36.10;;;8.40;83.90;;;;;;5074724;28;20487;-46
2022/03/24 08:46:24;;;;;;;53.00;34.77;;;8.40;82.80;;;;;;5074641;28;20495;-46
2022/03/24 08:48:52;;;;;;;54.50;36.30;;;8.50;82.70;;;;;;5074493;28;20432;-45
2022/03/24 08:51:20;;;;;;;46.93;34.53;;;8.60;82.50;;;;;;5075118;28;20439;-46
2022/03/24 08:53:47;;;;;;;51.60;35.63;;;8.60;82.20;;;;;;5075426;28;20433;-46
2022/03/24 08:56:14;;;;;;;47.83;35.37;;;8.60;82.00;;;;;;5074742;28;20439;-45
2022/03/24 08:58:41;;;;;;;46.77;32.93;;;8.70;81.90;;;;;;5074348;28;20436;-46
2022/03/24 09:01:08;;;;;;;48.00;34.30;;;8.80;81.70;;;;;;5074653;28;20436;-46
2022/03/24 09:03:34;;;;;;;44.70;31.90;;;8.80;81.20;;;;;;5074485;28;20797;-47
2022/03/24 09:06:01;;;;;;;49.50;35.47;;;8.90;80.80;;;;;;5073733;28;20458;-47
2022/03/24 09:08:29;;;;;;;48.03;33.53;;;8.70;80.50;;;;;;5070327;28;20455;-45
2022/03/24 09:10:55;;;;;;;48.27;34.60;;;9.00;80.80;;;;;;5068529;28;20436;-45
2022/03/24 09:13:22;;;;;;;47.80;33.83;;;9.00;80.70;;;;;;5073875;28;20936;-46
2022/03/24 09:15:49;;;;;;;45.87;33.33;;;9.10;80.50;;;;;;5071297;28;20462;-45
2022/03/24 09:18:16;;;;;;;52.87;32.80;;;9.10;80.10;;;;;;5071005;28;20792;-45
2022/03/24 09:20:43;;;;;;;53.73;34.53;;;9.10;80.00;;;;;;5061922;28;20454;-46
2022/03/24 09:23:09;;;;;;;45.13;31.63;;;9.20;79.40;;;;;;5070285;28;20462;-45
2022/03/24 09:25:39;;;;;;;49.97;32.77;;;9.30;77.80;;;;;;5063653;28;21006;-44
2022/03/24 09:28:06;;;;;;;40.13;29.50;;;9.40;77.90;;;;;;5074038;28;20444;-46
2022/03/24 09:30:33;;;;;;;46.43;32.77;;;9.50;77.00;;;;;;5065634;28;20980;-45
2022/03/24 09:33:00;;;;;;;47.60;31.00;;;9.50;76.50;;;;;;5073537;28;20850;-45
2022/03/24 09:35:26;;;;;;;44.60;29.90;;;9.50;76.60;;;;;;5073563;28;20846;-44
2022/03/24 09:37:53;;;;;;;43.83;32.10;;;9.60;76.70;;;;;;5073516;28;20440;-45
2022/03/24 09:40:20;;;;;;;42.10;32.47;;;9.60;76.80;;;;;;5073220;28;20549;-45
2022/03/24 09:42:48;;;;;;;46.00;30.97;;;9.70;76.40;;;;;;5073368;28;20515;-46
2022/03/24 09:45:15;;;;;;;34.97;25.23;;;9.80;75.80;;;;;;5073302;28;20452;-46
2022/03/24 09:47:42;;;;;;;39.50;26.63;;;9.80;73.00;;;;;;5073671;28;20528;-44
2022/03/24 09:50:11;;;;;;;36.43;22.80;;;9.90;71.90;;;;;;5073557;28;20413;-46
2022/03/24 09:52:38;;;;;;;38.13;26.57;;;9.90;70.40;;;;;;5073952;28;20472;-46
2022/03/24 09:55:06;;;;;;;36.70;26.80;;;10.00;69.20;;;;;;5073778;28;20426;-45
2022/03/24 09:57:33;;;;;;;36.20;23.47;;;10.00;69.70;;;;;;5073469;28;20433;-45
2022/03/24 10:00:02;;;;;;;30.77;22.83;;;10.10;69.20;;;;;;5072966;28;20857;-44
2022/03/24 10:02:31;;;;;;;35.50;22.17;;;10.10;66.50;;;;;;5073221;28;20786;-45
2022/03/24 10:05:00;;;;;;;29.37;19.50;;;10.20;65.80;;;;;;5073595;28;20482;-45
2022/03/24 10:07:29;;;;;;;30.10;19.70;;;10.20;63.90;;;;;;5073563;28;20430;-44
2022/03/24 10:09:57;;;;;;;30.67;21.27;;;10.20;62.20;;;;;;5072758;28;20969;-46
2022/03/24 10:12:25;;;;;;;29.00;21.00;;;10.30;62.60;;;;;;5073250;28;20465;-45
2022/03/24 10:15:06;;;;;;;32.20;21.37;;;10.30;62.40;;;;;;5066017;28;20774;-45
2022/03/24 10:17:34;;;;;;;29.73;20.63;;;10.40;62.50;;;;;;5066888;28;20457;-45
2022/03/24 10:20:04;;;;;;;30.10;21.53;;;10.50;62.70;;;;;;5064282;28;20527;-45
2022/03/24 10:22:32;;;;;;;26.37;19.33;;;10.50;60.80;;;;;;5059870;28;20525;-46
2022/03/24 10:24:59;;;;;;;27.10;19.40;;;10.60;60.70;;;;;;5072303;28;20468;-45
2022/03/24 10:27:27;;;;;;;27.37;19.40;;;10.50;59.50;;;;;;5064184;28;20792;-45
2022/03/24 10:29:55;;;;;;;26.13;17.27;;;10.60;59.70;;;;;;5068225;28;20515;-46
2022/03/24 10:32:28;;;;;;;26.67;19.50;;;10.70;59.50;;;;;;5068739;28;20453;-45
2022/03/24 10:34:58;;;;;;;22.50;15.63;;;10.80;57.70;;;;;;5067822;28;20433;-46
2022/03/24 10:37:26;;;;;;;21.43;14.80;;;10.90;56.80;;;;;;5069425;28;20846;-45
2022/03/24 10:39:59;;;;;;;24.63;17.67;;;10.90;53.70;;;;;;5067150;28;20456;-45
2022/03/24 10:42:28;;;;;;;29.47;17.83;;;11.00;55.00;;;;;;5072031;28;20548;-45
2022/03/24 10:45:18;;;;;;;28.83;19.10;;;11.00;55.20;;;;;;5072355;28;20430;-45
2022/03/24 10:47:49;;;;;;;25.07;18.03;;;11.10;55.60;;;;;;5072512;28;20451;-46
2022/03/24 10:50:25;;;;;;;31.70;20.03;;;11.10;55.90;;;;;;5071881;28;20441;-45
2022/03/24 10:52:53;;;;;;;31.07;17.77;;;11.20;56.00;;;;;;5068296;28;20844;-44
2022/03/24 10:55:30;;;;;;;24.93;16.67;;;11.20;55.70;;;;;;5056800;28;20521;-45
2022/03/24 10:58:00;;;;;;;28.30;17.93;;;11.30;54.40;;;;;;5072067;28;20439;-45
2022/03/24 11:00:27;;;;;;;32.40;20.57;;;11.30;53.50;;;;;;5071621;28;20443;-45
2022/03/24 11:02:56;;;;;;;26.93;18.90;;;11.40;54.90;;;;;;5072031;28;20954;-46
2022/03/24 11:05:23;;;;;;;32.57;19.40;;;11.50;55.20;;;;;;5072294;28;20478;-46
2022/03/24 11:07:53;;;;;;;34.60;19.60;;;11.50;54.90;;;;;;5072070;28;20430;-46
2022/03/24 11:10:21;;;;;;;33.03;20.87;;;11.50;55.60;;;;;;5071658;28;20433;-46
2022/03/24 11:12:51;;;;;;;35.80;21.30;;;11.60;55.70;;;;;;5089687;22;20589;-44
2022/03/24 11:15:19;;;;;;;29.87;21.07;;;11.70;55.70;;;;;;5051183;28;20430;-45
2022/03/24 11:17:47;;;;;;;28.07;20.20;;;11.70;55.90;;;;;;5051780;28;20450;-46
2022/03/24 11:20:27;;;;;;;31.70;19.07;;;11.70;55.60;;;;;;5051259;28;20435;-45
2022/03/24 11:22:57;;;;;;;26.80;19.77;;;11.80;54.70;;;;;;5058866;28;20891;-45
2022/03/24 11:25:25;;;;;;;33.10;19.20;;;11.80;54.70;;;;;;5071376;28;20506;-44
2022/03/24 11:27:54;;;;;;;39.43;17.53;;;11.80;54.50;;;;;;5071422;28;20509;-45
2022/03/24 11:30:22;;;;;;;27.87;16.90;;;11.80;54.10;;;;;;5071040;28;20545;-46
2022/03/24 11:32:50;;;;;;;27.50;17.00;;;11.90;53.60;;;;;;5071675;28;20489;-46
2022/03/24 11:35:18;;;;;;;33.17;18.27;;;11.90;53.00;;;;;;5070839;28;20772;-46
2022/03/24 11:37:46;;;;;;;28.90;18.40;;;11.90;52.80;;;;;;5071475;28;20440;-45
2022/03/24 11:40:16;;;;;;;27.77;18.73;;;12.00;52.90;;;;;;5069174;28;20817;-46
2022/03/24 11:42:50;;;;;;;33.20;19.40;;;12.10;53.10;;;;;;5051206;28;20458;-44
2022/03/24 11:45:27;;;;;;;25.33;18.83;;;12.10;53.30;;;;;;5069875;28;20428;-45
2022/03/24 11:48:01;;;;;;;26.40;17.47;;;12.10;53.00;;;;;;5070468;28;20420;-48
2022/03/24 11:50:41;;;;;;;24.63;17.93;;;12.20;51.50;;;;;;5070334;28;20441;-45
2022/03/24 11:53:15;;;;;;;21.27;15.40;;;12.20;50.80;;;;;;5070875;28;20496;-48
2022/03/24 11:56:00;;;;;;;26.60;17.90;;;12.30;50.50;;;;;;5052428;28;20462;-47
2022/03/24 11:58:28;;;;;;;28.30;15.60;;;12.40;50.80;;;;;;5069712;28;20491;-46
2022/03/24 12:00:55;;;;;;;29.80;15.50;;;12.40;50.40;;;;;;5071051;28;20434;-45
2022/03/24 12:03:43;;;;;;;23.17;16.47;;;12.40;50.10;;;;;;5071102;28;20497;-46
2022/03/24 12:06:13;;;;;;;27.23;17.47;;;12.40;49.60;;;;;;5070422;28;20469;-45
2022/03/24 12:08:48;;;;;;;24.63;15.20;;;12.50;50.00;;;;;;5069652;28;20422;-48
2022/03/24 12:11:53;;;;;;;25.60;15.63;;;12.50;49.30;;;;;;5070550;28;20527;-45
2022/03/24 12:14:37;;;;;;;26.47;15.43;;;12.60;49.20;;;;;;5070267;28;20630;-45
2022/03/24 12:17:07;;;;;;;24.37;16.57;;;12.60;48.30;;;;;;5071244;28;20530;-45
2022/03/24 12:19:42;;;;;;;25.17;16.37;;;12.60;48.70;;;;;;5070534;28;20509;-44
2022/03/24 12:22:45;;;;;;;29.20;17.43;;;12.50;48.20;;;;;;5070634;28;21004;-46
2022/03/24 12:25:29;;;;;;;24.50;16.30;;;12.60;48.00;;;;;;5070854;28;20438;-46
2022/03/24 12:28:08;;;;;;;25.40;14.97;;;12.70;48.60;;;;;;5070330;28;20433;-45
2022/03/24 12:30:51;;;;;;;20.17;14.40;;;12.70;48.30;;;;;;5069829;28;20603;-45
2022/03/24 12:33:20;;;;;;;23.70;16.43;;;12.80;47.70;;;;;;5070248;28;20862;-44
2022/03/24 12:35:49;;;;;;;22.20;15.47;;;12.90;47.70;;;;;;5070146;28;20440;-47
2022/03/24 12:38:40;;;;;;;27.80;15.47;;;12.90;47.30;;;;;;5069949;28;20408;-45
2022/03/24 12:41:24;;;;;;;24.00;16.23;;;12.70;47.00;;;;;;5070097;28;20434;-46
2022/03/24 12:43:55;;;;;;;21.83;14.60;;;13.00;47.60;;;;;;5069925;28;20770;-45